National Weather Service United States Department of Commerce

Airport Observations and Forecasts (from NWS CLE)

Cleveland Hopkins International Airport

 

FAA details


000
FTUS41 KCLE 161128
TAFCLE
TAF
KCLE 161128Z 1612/1718 30009KT P6SM -SHRA OVC018
FM161500 30008KT P6SM OVC018
FM161800 32009KT P6SM BKN025
FM170100 33006KT P6SM BKN035=

24 hours of observations

7-day forecast

Hourly - Tabular forecast  Hourly - Graph forecast

Terminal Information Board

Toledo Express Airport

 

FAA details


788
FTUS41 KCLE 161128
TAFTOL
TAF
KTOL 161128Z 1612/1712 31009KT P6SM OVC025
FM161800 32008KT P6SM BKN050
FM170600 VRB03KT P6SM SCT250=

24 hours of observations

7-day forecast

Hourly - Tabular forecast  Hourly - Graph forecast

Terminal Information Board

Findlay Airport

 

FAA details


790
FTUS41 KCLE 161128
TAFFDY
TAF
KFDY 161128Z 1612/1712 30009KT P6SM OVC028
FM161500 31008KT P6SM BKN050
FM170600 VRB03KT P6SM SKC=

24 hours of observations

7-day forecast

Hourly - Tabular forecast   Hourly - Graph forecast

Terminal Information Board

Mansfield Lahm Airport

 

FAA details


000
FTUS41 KCLE 161128
TAFMFD
TAF
KMFD 161128Z 1612/1712 30009KT P6SM OVC015
FM161500 31009G16KT P6SM OVC025
FM161800 31009KT P6SM BKN035
FM170600 VRB03KT P6SM BKN050=

24 hours of observations

7-day forecast

Hourly - Tabular forecast   Hourly - Graph forecast

Terminal Information Board

Akron-Canton Airport

 

FAA details


000
FTUS41 KCLE 161128
TAFCAK
TAF
KCAK 161128Z 1612/1712 30009KT P6SM -SHRA OVC015
FM161600 31007KT P6SM OVC025
FM170000 32005KT P6SM BKN040=

24 hours of observations

7-day forecast

Hourly - Tabular forecast   Hourly - Graph forecast

Terminal Information Board

Youngstown-Warren Regional Airport

 

FAA details


787
FTUS41 KCLE 161128
TAFYNG
TAF
KYNG 161128Z 1612/1712 30008KT P6SM -SHRA SCT008 OVC025
TEMPO 1612/1615 5SM -SHRA
FM170000 31006KT P6SM OVC010=

24 hours of observations

7-day forecast

Hourly - Tabular forecast   Hourly - Graph forecast

Terminal Information Board

Erie International Airport

 

FAA details


784
FTUS41 KCLE 161128
TAFERI
TAF
KERI 161128Z 1612/1712 29011KT P6SM -SHRA BKN015 OVC030
FM170000 31007KT P6SM OVC010=

24 hours of observations

7-day forecast

Hourly - Tabular Forecast  Hourly - Graph forecast

Terminal Information Board

The National Weather Service is Cleveland is responsible for the Terminal Areodome Forecasts for seven area airports in northern Ohio and northwest Pennsylvania.  Routine issuance times are by 00Z, 06Z, 12Z, and 18Z with amendments, as needed.

Latest Surface Analysis

Additional Current Conditions

Satellite

Radar
 
 

 

Center Weather Service Unit, Oberlin/ZOB

CWA/MIS    

 

The National Weather Service Center Weather Service Unit in Oberlin is responsible for the airspace above northern Ohio and northwest Pennsylvania and ajoining areas.

 

Aviaiton Weather Center National, AWC

AIRMETS & SIGMETS